sensor_id;sensor_type;location;lat;lon;timestamp;temperature;humidity
70051;SHT30;57391;51.306;22.680;2022-07-19T00:00:12;18.15;70.81
70051;SHT30;57391;51.306;22.680;2022-07-19T00:03:01;18.16;70.94
70051;SHT30;57391;51.306;22.680;2022-07-19T00:05:28;18.15;71.03
70051;SHT30;57391;51.306;22.680;2022-07-19T00:07:55;18.14;71.00
70051;SHT30;57391;51.306;22.680;2022-07-19T00:10:22;18.12;71.06
70051;SHT30;57391;51.306;22.680;2022-07-19T00:12:49;18.12;71.02
70051;SHT30;57391;51.306;22.680;2022-07-19T00:15:16;18.11;71.13
70051;SHT30;57391;51.306;22.680;2022-07-19T00:17:44;18.11;71.39
70051;SHT30;57391;51.306;22.680;2022-07-19T00:20:16;18.11;71.43
70051;SHT30;57391;51.306;22.680;2022-07-19T00:22:46;18.10;71.12
70051;SHT30;57391;51.306;22.680;2022-07-19T00:25:13;18.09;70.94
70051;SHT30;57391;51.306;22.680;2022-07-19T00:27:41;18.08;70.86
70051;SHT30;57391;51.306;22.680;2022-07-19T00:30:09;18.07;70.81
70051;SHT30;57391;51.306;22.680;2022-07-19T00:32:36;18.04;70.89
70051;SHT30;57391;51.306;22.680;2022-07-19T00:35:03;18.03;70.97
70051;SHT30;57391;51.306;22.680;2022-07-19T00:37:31;18.03;70.93
70051;SHT30;57391;51.306;22.680;2022-07-19T00:39:59;18.02;71.03
70051;SHT30;57391;51.306;22.680;2022-07-19T00:42:26;18.01;71.10
70051;SHT30;57391;51.306;22.680;2022-07-19T00:44:53;18.01;71.16
70051;SHT30;57391;51.306;22.680;2022-07-19T00:47:20;18.00;71.23
70051;SHT30;57391;51.306;22.680;2022-07-19T00:49:47;17.99;71.32
70051;SHT30;57391;51.306;22.680;2022-07-19T00:52:14;17.98;71.27
70051;SHT30;57391;51.306;22.680;2022-07-19T00:54:45;17.97;71.24
70051;SHT30;57391;51.306;22.680;2022-07-19T00:57:14;17.96;71.30
70051;SHT30;57391;51.306;22.680;2022-07-19T00:59:42;17.96;71.40
70051;SHT30;57391;51.306;22.680;2022-07-19T01:02:10;17.96;71.39
70051;SHT30;57391;51.306;22.680;2022-07-19T01:04:39;17.96;71.42
70051;SHT30;57391;51.306;22.680;2022-07-19T01:07:06;17.98;71.41
70051;SHT30;57391;51.306;22.680;2022-07-19T01:09:34;17.98;71.31
70051;SHT30;57391;51.306;22.680;2022-07-19T01:12:04;17.97;71.19
70051;SHT30;57391;51.306;22.680;2022-07-19T01:14:33;17.98;70.98
70051;SHT30;57391;51.306;22.680;2022-07-19T01:17:02;17.98;70.70
70051;SHT30;57391;51.306;22.680;2022-07-19T01:19:30;17.98;70.85
70051;SHT30;57391;51.306;22.680;2022-07-19T01:21:58;17.99;70.86
70051;SHT30;57391;51.306;22.680;2022-07-19T01:24:27;18.01;70.85
70051;SHT30;57391;51.306;22.680;2022-07-19T01:26:54;18.02;70.57
70051;SHT30;57391;51.306;22.680;2022-07-19T01:29:22;18.02;70.51
70051;SHT30;57391;51.306;22.680;2022-07-19T01:31:49;18.02;70.40
70051;SHT30;57391;51.306;22.680;2022-07-19T01:34:16;18.01;70.34
70051;SHT30;57391;51.306;22.680;2022-07-19T01:36:43;18.01;70.29
70051;SHT30;57391;51.306;22.680;2022-07-19T01:39:10;18.03;70.28
70051;SHT30;57391;51.306;22.680;2022-07-19T01:41:37;18.03;70.28
70051;SHT30;57391;51.306;22.680;2022-07-19T01:44:04;18.03;70.69
70051;SHT30;57391;51.306;22.680;2022-07-19T01:46:31;18.04;70.53
70051;SHT30;57391;51.306;22.680;2022-07-19T01:48:58;18.06;70.48
70051;SHT30;57391;51.306;22.680;2022-07-19T01:51:25;18.07;70.55
70051;SHT30;57391;51.306;22.680;2022-07-19T01:53:52;18.08;70.28
70051;SHT30;57391;51.306;22.680;2022-07-19T01:56:19;18.11;70.31
70051;SHT30;57391;51.306;22.680;2022-07-19T01:58:47;18.11;69.96
70051;SHT30;57391;51.306;22.680;2022-07-19T02:01:14;18.12;69.90
70051;SHT30;57391;51.306;22.680;2022-07-19T02:03:41;18.12;69.96
70051;SHT30;57391;51.306;22.680;2022-07-19T02:06:08;18.12;69.90
70051;SHT30;57391;51.306;22.680;2022-07-19T02:08:36;18.13;69.73
70051;SHT30;57391;51.306;22.680;2022-07-19T02:11:03;18.11;69.64
70051;SHT30;57391;51.306;22.680;2022-07-19T02:13:50;18.11;69.47
70051;SHT30;57391;51.306;22.680;2022-07-19T02:16:17;18.10;69.47
70051;SHT30;57391;51.306;22.680;2022-07-19T02:18:45;18.09;69.49
70051;SHT30;57391;51.306;22.680;2022-07-19T02:21:12;18.08;69.40
70051;SHT30;57391;51.306;22.680;2022-07-19T02:23:39;18.08;69.33
70051;SHT30;57391;51.306;22.680;2022-07-19T02:26:06;18.07;69.30
70051;SHT30;57391;51.306;22.680;2022-07-19T02:28:33;18.06;69.42
70051;SHT30;57391;51.306;22.680;2022-07-19T02:31:00;18.06;69.46
70051;SHT30;57391;51.306;22.680;2022-07-19T02:33:27;18.04;69.50
70051;SHT30;57391;51.306;22.680;2022-07-19T02:35:54;18.04;69.63
70051;SHT30;57391;51.306;22.680;2022-07-19T02:38:21;18.03;69.71
70051;SHT30;57391;51.306;22.680;2022-07-19T02:40:48;18.01;69.80
70051;SHT30;57391;51.306;22.680;2022-07-19T02:43:15;18.00;69.83
70051;SHT30;57391;51.306;22.680;2022-07-19T02:45:43;17.99;69.93
70051;SHT30;57391;51.306;22.680;2022-07-19T02:48:10;17.97;70.04
70051;SHT30;57391;51.306;22.680;2022-07-19T02:50:37;17.95;70.00
70051;SHT30;57391;51.306;22.680;2022-07-19T02:53:04;17.95;70.02
70051;SHT30;57391;51.306;22.680;2022-07-19T02:55:31;17.93;69.93
70051;SHT30;57391;51.306;22.680;2022-07-19T02:57:58;17.93;69.90
70051;SHT30;57391;51.306;22.680;2022-07-19T03:00:26;17.92;69.84
70051;SHT30;57391;51.306;22.680;2022-07-19T03:02:54;17.91;69.80
70051;SHT30;57391;51.306;22.680;2022-07-19T03:05:21;17.91;69.82
70051;SHT30;57391;51.306;22.680;2022-07-19T03:07:48;17.90;69.80
70051;SHT30;57391;51.306;22.680;2022-07-19T03:10:15;17.91;69.73
70051;SHT30;57391;51.306;22.680;2022-07-19T03:12:42;17.91;69.74
70051;SHT30;57391;51.306;22.680;2022-07-19T03:15:09;17.92;69.62
70051;SHT30;57391;51.306;22.680;2022-07-19T03:17:36;17.94;69.60
70051;SHT30;57391;51.306;22.680;2022-07-19T03:20:03;17.96;69.48
70051;SHT30;57391;51.306;22.680;2022-07-19T03:22:31;17.99;69.37
70051;SHT30;57391;51.306;22.680;2022-07-19T03:24:58;18.00;69.39
70051;SHT30;57391;51.306;22.680;2022-07-19T03:27:25;18.00;69.32
70051;SHT30;57391;51.306;22.680;2022-07-19T03:29:52;18.00;69.29
70051;SHT30;57391;51.306;22.680;2022-07-19T03:32:19;18.04;69.56
70051;SHT30;57391;51.306;22.680;2022-07-19T03:34:46;18.06;69.64
70051;SHT30;57391;51.306;22.680;2022-07-19T03:37:15;18.07;69.36
70051;SHT30;57391;51.306;22.680;2022-07-19T03:39:42;18.08;69.33
70051;SHT30;57391;51.306;22.680;2022-07-19T03:42:09;18.07;69.47
70051;SHT30;57391;51.306;22.680;2022-07-19T03:44:36;18.06;69.45
70051;SHT30;57391;51.306;22.680;2022-07-19T03:47:03;18.05;69.48
70051;SHT30;57391;51.306;22.680;2022-07-19T03:49:30;18.07;69.52
70051;SHT30;57391;51.306;22.680;2022-07-19T03:51:58;18.09;69.54
70051;SHT30;57391;51.306;22.680;2022-07-19T03:54:25;18.11;69.43
70051;SHT30;57391;51.306;22.680;2022-07-19T03:56:52;18.11;69.16
70051;SHT30;57391;51.306;22.680;2022-07-19T03:59:21;18.14;69.01
70051;SHT30;57391;51.306;22.680;2022-07-19T04:01:49;18.16;68.89
70051;SHT30;57391;51.306;22.680;2022-07-19T04:04:17;18.20;68.99
70051;SHT30;57391;51.306;22.680;2022-07-19T04:06:44;18.23;68.91
70051;SHT30;57391;51.306;22.680;2022-07-19T04:09:11;18.23;69.04
70051;SHT30;57391;51.306;22.680;2022-07-19T04:11:38;18.22;69.10
70051;SHT30;57391;51.306;22.680;2022-07-19T04:14:05;18.22;69.15
70051;SHT30;57391;51.306;22.680;2022-07-19T04:16:32;18.22;69.29
70051;SHT30;57391;51.306;22.680;2022-07-19T04:18:59;18.24;69.36
70051;SHT30;57391;51.306;22.680;2022-07-19T04:21:26;18.26;69.33
70051;SHT30;57391;51.306;22.680;2022-07-19T04:23:53;18.30;69.38
70051;SHT30;57391;51.306;22.680;2022-07-19T04:26:20;18.32;69.72
70051;SHT30;57391;51.306;22.680;2022-07-19T04:28:47;18.34;69.78
70051;SHT30;57391;51.306;22.680;2022-07-19T04:31:15;18.37;69.87
70051;SHT30;57391;51.306;22.680;2022-07-19T04:33:43;18.40;69.95
70051;SHT30;57391;51.306;22.680;2022-07-19T04:36:10;18.45;70.24
70051;SHT30;57391;51.306;22.680;2022-07-19T04:38:37;18.50;70.29
70051;SHT30;57391;51.306;22.680;2022-07-19T04:41:04;18.55;70.34
70051;SHT30;57391;51.306;22.680;2022-07-19T04:43:31;18.60;70.34
70051;SHT30;57391;51.306;22.680;2022-07-19T04:45:58;18.68;69.76
70051;SHT30;57391;51.306;22.680;2022-07-19T04:48:27;18.73;69.28
70051;SHT30;57391;51.306;22.680;2022-07-19T04:50:54;18.76;68.99
70051;SHT30;57391;51.306;22.680;2022-07-19T04:53:21;18.80;69.16
70051;SHT30;57391;51.306;22.680;2022-07-19T04:55:48;18.84;68.88
70051;SHT30;57391;51.306;22.680;2022-07-19T04:58:15;18.89;68.98
70051;SHT30;57391;51.306;22.680;2022-07-19T05:00:42;18.92;69.06
70051;SHT30;57391;51.306;22.680;2022-07-19T05:03:09;18.97;69.19
70051;SHT30;57391;51.306;22.680;2022-07-19T05:05:36;19.03;69.31
70051;SHT30;57391;51.306;22.680;2022-07-19T05:08:03;19.07;69.20
70051;SHT30;57391;51.306;22.680;2022-07-19T05:10:31;19.12;69.04
70051;SHT30;57391;51.306;22.680;2022-07-19T05:12:58;19.18;69.20
70051;SHT30;57391;51.306;22.680;2022-07-19T05:15:25;19.24;69.46
70051;SHT30;57391;51.306;22.680;2022-07-19T05:17:52;19.31;69.56
70051;SHT30;57391;51.306;22.680;2022-07-19T05:20:19;19.38;69.57
70051;SHT30;57391;51.306;22.680;2022-07-19T05:22:46;19.47;69.51
70051;SHT30;57391;51.306;22.680;2022-07-19T05:25:13;19.52;69.11
70051;SHT30;57391;51.306;22.680;2022-07-19T05:27:41;19.59;69.10
70051;SHT30;57391;51.306;22.680;2022-07-19T05:30:10;19.66;69.30
70051;SHT30;57391;51.306;22.680;2022-07-19T05:32:38;19.75;69.17
70051;SHT30;57391;51.306;22.680;2022-07-19T05:35:05;19.83;68.59
70051;SHT30;57391;51.306;22.680;2022-07-19T05:37:33;19.91;67.69
70051;SHT30;57391;51.306;22.680;2022-07-19T05:40:00;20.01;67.32
70051;SHT30;57391;51.306;22.680;2022-07-19T05:42:27;20.13;66.97
70051;SHT30;57391;51.306;22.680;2022-07-19T05:44:54;20.23;67.03
70051;SHT30;57391;51.306;22.680;2022-07-19T05:47:21;20.33;66.99
70051;SHT30;57391;51.306;22.680;2022-07-19T05:49:48;20.42;66.34
70051;SHT30;57391;51.306;22.680;2022-07-19T05:52:15;20.49;65.68
70051;SHT30;57391;51.306;22.680;2022-07-19T05:54:44;20.58;65.55
70051;SHT30;57391;51.306;22.680;2022-07-19T05:57:11;20.66;65.34
70051;SHT30;57391;51.306;22.680;2022-07-19T05:59:38;20.76;65.19
70051;SHT30;57391;51.306;22.680;2022-07-19T06:02:05;20.85;64.73
70051;SHT30;57391;51.306;22.680;2022-07-19T06:04:32;20.98;64.37
70051;SHT30;57391;51.306;22.680;2022-07-19T06:06:59;21.12;63.58
70051;SHT30;57391;51.306;22.680;2022-07-19T06:09:26;21.24;63.17
70051;SHT30;57391;51.306;22.680;2022-07-19T06:11:53;21.40;62.61
70051;SHT30;57391;51.306;22.680;2022-07-19T06:14:21;21.57;61.57
70051;SHT30;57391;51.306;22.680;2022-07-19T06:16:48;21.83;60.67
70051;SHT30;57391;51.306;22.680;2022-07-19T06:19:15;22.06;60.15
70051;SHT30;57391;51.306;22.680;2022-07-19T06:21:42;22.20;59.81
70051;SHT30;57391;51.306;22.680;2022-07-19T06:24:09;22.30;59.42
70051;SHT30;57391;51.306;22.680;2022-07-19T06:26:36;22.35;58.52
70051;SHT30;57391;51.306;22.680;2022-07-19T06:29:04;22.39;57.54
70051;SHT30;57391;51.306;22.680;2022-07-19T06:31:34;22.41;56.53
70051;SHT30;57391;51.306;22.680;2022-07-19T06:34:01;22.43;56.21
70051;SHT30;57391;51.306;22.680;2022-07-19T06:36:29;22.41;55.87
70051;SHT30;57391;51.306;22.680;2022-07-19T06:38:56;22.41;55.82
70051;SHT30;57391;51.306;22.680;2022-07-19T06:41:23;22.44;56.09
70051;SHT30;57391;51.306;22.680;2022-07-19T06:43:50;22.50;56.14
70051;SHT30;57391;51.306;22.680;2022-07-19T06:46:17;22.69;56.72
70051;SHT30;57391;51.306;22.680;2022-07-19T06:48:44;22.86;56.70
70051;SHT30;57391;51.306;22.680;2022-07-19T06:51:11;23.01;55.40
70051;SHT30;57391;51.306;22.680;2022-07-19T06:53:38;23.21;53.93
70051;SHT30;57391;51.306;22.680;2022-07-19T06:56:05;23.55;53.35
70051;SHT30;57391;51.306;22.680;2022-07-19T06:58:33;23.85;52.42
70051;SHT30;57391;51.306;22.680;2022-07-19T07:01:00;24.03;52.97
70051;SHT30;57391;51.306;22.680;2022-07-19T07:03:27;24.22;52.70
70051;SHT30;57391;51.306;22.680;2022-07-19T07:05:54;24.56;51.20
70051;SHT30;57391;51.306;22.680;2022-07-19T07:08:21;25.07;50.22
70051;SHT30;57391;51.306;22.680;2022-07-19T07:10:48;25.45;50.13
70051;SHT30;57391;51.306;22.680;2022-07-19T07:13:15;25.87;49.76
70051;SHT30;57391;51.306;22.680;2022-07-19T07:15:42;26.16;48.29
70051;SHT30;57391;51.306;22.680;2022-07-19T07:18:10;26.52;46.92
70051;SHT30;57391;51.306;22.680;2022-07-19T07:20:37;27.01;46.77
70051;SHT30;57391;51.306;22.680;2022-07-19T07:23:05;27.41;46.22
70051;SHT30;57391;51.306;22.680;2022-07-19T07:25:35;28.12;45.51
70051;SHT30;57391;51.306;22.680;2022-07-19T07:28:03;28.89;43.60
70051;SHT30;57391;51.306;22.680;2022-07-19T07:30:30;29.47;42.34
70051;SHT30;57391;51.306;22.680;2022-07-19T07:32:57;29.82;41.12
70051;SHT30;57391;51.306;22.680;2022-07-19T07:35:24;30.31;40.53
70051;SHT30;57391;51.306;22.680;2022-07-19T07:37:52;30.53;39.97
70051;SHT30;57391;51.306;22.680;2022-07-19T07:40:19;30.58;39.36
70051;SHT30;57391;51.306;22.680;2022-07-19T07:42:46;30.51;39.51
70051;SHT30;57391;51.306;22.680;2022-07-19T07:45:14;30.35;39.26
70051;SHT30;57391;51.306;22.680;2022-07-19T07:47:41;30.22;39.35
70051;SHT30;57391;51.306;22.680;2022-07-19T07:50:08;30.20;39.17
70051;SHT30;57391;51.306;22.680;2022-07-19T07:52:36;30.22;38.98
70051;SHT30;57391;51.306;22.680;2022-07-19T07:55:04;30.29;39.73
70051;SHT30;57391;51.306;22.680;2022-07-19T07:57:31;30.47;39.65
70051;SHT30;57391;51.306;22.680;2022-07-19T07:59:59;30.54;39.32
70051;SHT30;57391;51.306;22.680;2022-07-19T08:02:26;30.45;39.01
70051;SHT30;57391;51.306;22.680;2022-07-19T08:04:53;30.36;38.70
70051;SHT30;57391;51.306;22.680;2022-07-19T08:07:20;30.26;39.51
70051;SHT30;57391;51.306;22.680;2022-07-19T08:09:47;30.15;39.23
70051;SHT30;57391;51.306;22.680;2022-07-19T08:12:14;30.08;39.53
70051;SHT30;57391;51.306;22.680;2022-07-19T08:14:41;30.15;39.83
70051;SHT30;57391;51.306;22.680;2022-07-19T08:17:08;30.36;40.43
70051;SHT30;57391;51.306;22.680;2022-07-19T08:19:35;30.56;39.59
70051;SHT30;57391;51.306;22.680;2022-07-19T08:22:02;30.65;38.60
70051;SHT30;57391;51.306;22.680;2022-07-19T08:24:29;30.53;38.35
70051;SHT30;57391;51.306;22.680;2022-07-19T08:26:56;30.29;38.32
70051;SHT30;57391;51.306;22.680;2022-07-19T08:29:23;30.04;39.12
70051;SHT30;57391;51.306;22.680;2022-07-19T08:31:50;29.78;38.72
70051;SHT30;57391;51.306;22.680;2022-07-19T08:34:17;29.57;39.88
70051;SHT30;57391;51.306;22.680;2022-07-19T08:36:45;29.36;39.68
70051;SHT30;57391;51.306;22.680;2022-07-19T08:39:12;29.19;39.97
70051;SHT30;57391;51.306;22.680;2022-07-19T08:41:41;28.99;39.15
70051;SHT30;57391;51.306;22.680;2022-07-19T08:44:13;28.83;39.84
70051;SHT30;57391;51.306;22.680;2022-07-19T08:46:43;28.63;40.02
70051;SHT30;57391;51.306;22.680;2022-07-19T08:49:11;28.51;39.56
70051;SHT30;57391;51.306;22.680;2022-07-19T08:51:38;28.42;39.17
70051;SHT30;57391;51.306;22.680;2022-07-19T08:54:09;28.34;39.88
70051;SHT30;57391;51.306;22.680;2022-07-19T08:56:37;28.24;40.73
70051;SHT30;57391;51.306;22.680;2022-07-19T08:59:24;28.10;40.77
70051;SHT30;57391;51.306;22.680;2022-07-19T09:01:52;27.94;40.73
70051;SHT30;57391;51.306;22.680;2022-07-19T09:04:20;27.70;40.74
70051;SHT30;57391;51.306;22.680;2022-07-19T09:06:52;27.50;41.21
70051;SHT30;57391;51.306;22.680;2022-07-19T09:09:25;27.35;42.09
70051;SHT30;57391;51.306;22.680;2022-07-19T09:11:57;27.22;41.93
70051;SHT30;57391;51.306;22.680;2022-07-19T09:17:04;26.94;40.97
70051;SHT30;57391;51.306;22.680;2022-07-19T09:19:43;26.82;41.73
70051;SHT30;57391;51.306;22.680;2022-07-19T09:22:16;26.72;41.80
70051;SHT30;57391;51.306;22.680;2022-07-19T09:24:46;26.66;42.63
70051;SHT30;57391;51.306;22.680;2022-07-19T09:27:18;26.67;42.84
70051;SHT30;57391;51.306;22.680;2022-07-19T09:29:54;26.69;42.67
70051;SHT30;57391;51.306;22.680;2022-07-19T09:32:24;26.73;42.97
70051;SHT30;57391;51.306;22.680;2022-07-19T09:34:57;26.84;43.26
70051;SHT30;57391;51.306;22.680;2022-07-19T09:37:30;26.96;42.59
70051;SHT30;57391;51.306;22.680;2022-07-19T09:40:04;27.07;42.84
70051;SHT30;57391;51.306;22.680;2022-07-19T09:45:12;27.15;42.20
70051;SHT30;57391;51.306;22.680;2022-07-19T09:47:43;27.16;42.21
70051;SHT30;57391;51.306;22.680;2022-07-19T09:50:14;27.09;41.35
70051;SHT30;57391;51.306;22.680;2022-07-19T09:52:48;26.98;40.98
70051;SHT30;57391;51.306;22.680;2022-07-19T09:55:17;26.91;40.92
70051;SHT30;57391;51.306;22.680;2022-07-19T09:57:48;26.85;41.30
70051;SHT30;57391;51.306;22.680;2022-07-19T10:00:19;26.81;41.15
70051;SHT30;57391;51.306;22.680;2022-07-19T10:02:52;26.78;41.92
70051;SHT30;57391;51.306;22.680;2022-07-19T10:05:26;26.81;42.90
70051;SHT30;57391;51.306;22.680;2022-07-19T10:07:55;26.85;42.51
70051;SHT30;57391;51.306;22.680;2022-07-19T10:10:23;26.86;41.83
70051;SHT30;57391;51.306;22.680;2022-07-19T10:12:51;26.87;41.99
70051;SHT30;57391;51.306;22.680;2022-07-19T10:15:19;26.94;42.83
70051;SHT30;57391;51.306;22.680;2022-07-19T10:20:39;27.63;42.81
70051;SHT30;57391;51.306;22.680;2022-07-19T10:23:13;27.93;42.52
70051;SHT30;57391;51.306;22.680;2022-07-19T10:25:45;28.14;42.03
70051;SHT30;57391;51.306;22.680;2022-07-19T10:34:05;28.48;40.04
70051;SHT30;57391;51.306;22.680;2022-07-19T10:36:38;28.63;40.22
70051;SHT30;57391;51.306;22.680;2022-07-19T10:42:22;28.69;39.81
70051;SHT30;57391;51.306;22.680;2022-07-19T10:50:11;28.55;38.90
70051;SHT30;57391;51.306;22.680;2022-07-19T10:52:47;28.49;39.72
70051;SHT30;57391;51.306;22.680;2022-07-19T10:57:45;28.42;39.90
70051;SHT30;57391;51.306;22.680;2022-07-19T11:00:18;28.41;39.43
70051;SHT30;57391;51.306;22.680;2022-07-19T11:02:50;28.38;40.01
70051;SHT30;57391;51.306;22.680;2022-07-19T11:05:50;28.32;39.17
70051;SHT30;57391;51.306;22.680;2022-07-19T11:11:13;28.17;39.69
70051;SHT30;57391;51.306;22.680;2022-07-19T11:13:44;28.08;39.73
70051;SHT30;57391;51.306;22.680;2022-07-19T11:16:17;28.06;41.04
70051;SHT30;57391;51.306;22.680;2022-07-19T11:18:46;28.02;40.85
70051;SHT30;57391;51.306;22.680;2022-07-19T11:21:14;28.00;40.23
70051;SHT30;57391;51.306;22.680;2022-07-19T11:23:43;28.02;40.19
70051;SHT30;57391;51.306;22.680;2022-07-19T11:26:13;28.07;40.80
70051;SHT30;57391;51.306;22.680;2022-07-19T11:28:50;28.15;40.00
70051;SHT30;57391;51.306;22.680;2022-07-19T11:31:18;28.19;39.34
70051;SHT30;57391;51.306;22.680;2022-07-19T11:33:51;28.26;39.55
70051;SHT30;57391;51.306;22.680;2022-07-19T11:36:24;28.31;38.30
70051;SHT30;57391;51.306;22.680;2022-07-19T11:38:54;28.28;38.21
70051;SHT30;57391;51.306;22.680;2022-07-19T11:41:31;28.22;38.21
70051;SHT30;57391;51.306;22.680;2022-07-19T11:44:00;28.20;38.32
70051;SHT30;57391;51.306;22.680;2022-07-19T11:46:33;28.33;37.99
70051;SHT30;57391;51.306;22.680;2022-07-19T11:49:10;28.56;39.35
70051;SHT30;57391;51.306;22.680;2022-07-19T11:51:39;28.80;38.51
70051;SHT30;57391;51.306;22.680;2022-07-19T11:54:07;28.91;37.12
70051;SHT30;57391;51.306;22.680;2022-07-19T11:56:36;29.02;37.69
70051;SHT30;57391;51.306;22.680;2022-07-19T11:59:04;29.11;36.93
70051;SHT30;57391;51.306;22.680;2022-07-19T12:01:35;29.20;36.26
70051;SHT30;57391;51.306;22.680;2022-07-19T12:06:44;29.25;35.68
70051;SHT30;57391;51.306;22.680;2022-07-19T12:09:15;29.36;35.83
70051;SHT30;57391;51.306;22.680;2022-07-19T12:11:54;29.53;35.98
70051;SHT30;57391;51.306;22.680;2022-07-19T12:14:24;29.53;34.64
70051;SHT30;57391;51.306;22.680;2022-07-19T12:17:10;29.54;35.20
70051;SHT30;57391;51.306;22.680;2022-07-19T12:19:38;29.59;35.33
70051;SHT30;57391;51.306;22.680;2022-07-19T12:22:25;29.67;35.44
70051;SHT30;57391;51.306;22.680;2022-07-19T12:25:08;29.70;35.00
70051;SHT30;57391;51.306;22.680;2022-07-19T12:27:36;29.72;35.17
70051;SHT30;57391;51.306;22.680;2022-07-19T12:30:04;29.72;35.17
70051;SHT30;57391;51.306;22.680;2022-07-19T12:32:36;29.76;35.36
70051;SHT30;57391;51.306;22.680;2022-07-19T12:35:10;29.78;35.05
70051;SHT30;57391;51.306;22.680;2022-07-19T12:37:41;29.68;34.66
70051;SHT30;57391;51.306;22.680;2022-07-19T12:40:20;29.50;34.79
70051;SHT30;57391;51.306;22.680;2022-07-19T12:42:57;29.41;35.40
70051;SHT30;57391;51.306;22.680;2022-07-19T12:45:27;29.45;36.30
70051;SHT30;57391;51.306;22.680;2022-07-19T12:48:00;29.59;36.20
70051;SHT30;57391;51.306;22.680;2022-07-19T12:50:33;29.70;36.05
70051;SHT30;57391;51.306;22.680;2022-07-19T12:53:09;29.66;35.33
70051;SHT30;57391;51.306;22.680;2022-07-19T12:55:40;29.58;35.70
70051;SHT30;57391;51.306;22.680;2022-07-19T12:58:12;29.52;35.26
70051;SHT30;57391;51.306;22.680;2022-07-19T13:01:04;29.39;35.21
70051;SHT30;57391;51.306;22.680;2022-07-19T13:03:36;29.27;35.34
70051;SHT30;57391;51.306;22.680;2022-07-19T13:06:03;29.16;35.61
70051;SHT30;57391;51.306;22.680;2022-07-19T13:08:30;29.03;35.42
70051;SHT30;57391;51.306;22.680;2022-07-19T13:10:57;28.91;35.63
70051;SHT30;57391;51.306;22.680;2022-07-19T13:13:25;28.79;35.31
70051;SHT30;57391;51.306;22.680;2022-07-19T13:15:52;28.68;36.50
70051;SHT30;57391;51.306;22.680;2022-07-19T13:18:20;28.64;36.47
70051;SHT30;57391;51.306;22.680;2022-07-19T13:20:47;28.61;36.79
70051;SHT30;57391;51.306;22.680;2022-07-19T13:23:15;28.59;36.18
70051;SHT30;57391;51.306;22.680;2022-07-19T13:25:43;28.56;36.33
70051;SHT30;57391;51.306;22.680;2022-07-19T13:28:10;28.52;35.78
70051;SHT30;57391;51.306;22.680;2022-07-19T13:30:38;28.46;35.32
70051;SHT30;57391;51.306;22.680;2022-07-19T13:33:05;28.43;35.20
70051;SHT30;57391;51.306;22.680;2022-07-19T13:35:32;28.44;35.21
70051;SHT30;57391;51.306;22.680;2022-07-19T13:38:00;28.50;35.54
70051;SHT30;57391;51.306;22.680;2022-07-19T13:40:27;28.61;35.74
70051;SHT30;57391;51.306;22.680;2022-07-19T13:42:54;28.75;35.34
70051;SHT30;57391;51.306;22.680;2022-07-19T13:45:21;28.91;35.41
70051;SHT30;57391;51.306;22.680;2022-07-19T13:47:48;29.06;35.19
70051;SHT30;57391;51.306;22.680;2022-07-19T13:50:15;29.15;34.55
70051;SHT30;57391;51.306;22.680;2022-07-19T13:52:42;29.20;34.56
70051;SHT30;57391;51.306;22.680;2022-07-19T13:55:09;29.27;34.58
70051;SHT30;57391;51.306;22.680;2022-07-19T13:57:37;29.31;34.36
70051;SHT30;57391;51.306;22.680;2022-07-19T14:00:04;29.31;33.92
70051;SHT30;57391;51.306;22.680;2022-07-19T14:02:38;29.27;33.93
70051;SHT30;57391;51.306;22.680;2022-07-19T14:05:05;29.23;34.10
70051;SHT30;57391;51.306;22.680;2022-07-19T14:07:32;29.18;33.92
70051;SHT30;57391;51.306;22.680;2022-07-19T14:10:00;29.15;34.43
70051;SHT30;57391;51.306;22.680;2022-07-19T14:12:28;29.17;34.90
70051;SHT30;57391;51.306;22.680;2022-07-19T14:14:55;29.14;35.10
70051;SHT30;57391;51.306;22.680;2022-07-19T14:17:22;29.13;35.59
70051;SHT30;57391;51.306;22.680;2022-07-19T14:19:49;29.11;34.95
70051;SHT30;57391;51.306;22.680;2022-07-19T14:22:16;29.06;34.92
70051;SHT30;57391;51.306;22.680;2022-07-19T14:24:44;28.97;34.92
70051;SHT30;57391;51.306;22.680;2022-07-19T14:27:11;28.90;35.51
70051;SHT30;57391;51.306;22.680;2022-07-19T14:29:38;28.86;35.51
70051;SHT30;57391;51.306;22.680;2022-07-19T14:32:05;28.87;36.06
70051;SHT30;57391;51.306;22.680;2022-07-19T14:34:33;28.89;35.93
70051;SHT30;57391;51.306;22.680;2022-07-19T14:37:00;28.89;35.77
70051;SHT30;57391;51.306;22.680;2022-07-19T14:39:27;28.82;35.63
70051;SHT30;57391;51.306;22.680;2022-07-19T14:41:54;28.72;35.76
70051;SHT30;57391;51.306;22.680;2022-07-19T14:44:21;28.65;36.30
70051;SHT30;57391;51.306;22.680;2022-07-19T14:46:50;28.58;36.15
70051;SHT30;57391;51.306;22.680;2022-07-19T14:49:17;28.55;36.52
70051;SHT30;57391;51.306;22.680;2022-07-19T14:51:45;28.54;36.54
70051;SHT30;57391;51.306;22.680;2022-07-19T14:54:12;28.51;36.77
70051;SHT30;57391;51.306;22.680;2022-07-19T14:56:39;28.47;37.09
70051;SHT30;57391;51.306;22.680;2022-07-19T14:59:06;28.50;37.13
70051;SHT30;57391;51.306;22.680;2022-07-19T15:01:33;28.53;37.20
70051;SHT30;57391;51.306;22.680;2022-07-19T15:04:01;28.49;37.21
70051;SHT30;57391;51.306;22.680;2022-07-19T15:06:28;28.44;36.80
70051;SHT30;57391;51.306;22.680;2022-07-19T15:08:55;28.36;36.53
70051;SHT30;57391;51.306;22.680;2022-07-19T15:11:22;28.33;36.85
70051;SHT30;57391;51.306;22.680;2022-07-19T15:13:49;28.24;37.10
70051;SHT30;57391;51.306;22.680;2022-07-19T15:16:16;28.16;37.22
70051;SHT30;57391;51.306;22.680;2022-07-19T15:18:44;28.12;37.42
70051;SHT30;57391;51.306;22.680;2022-07-19T15:21:11;28.07;37.50
70051;SHT30;57391;51.306;22.680;2022-07-19T15:23:38;28.07;37.55
70051;SHT30;57391;51.306;22.680;2022-07-19T15:26:08;28.08;37.99
70051;SHT30;57391;51.306;22.680;2022-07-19T15:28:35;28.07;38.05
70051;SHT30;57391;51.306;22.680;2022-07-19T15:31:04;28.08;38.12
70051;SHT30;57391;51.306;22.680;2022-07-19T15:33:33;28.10;38.27
70051;SHT30;57391;51.306;22.680;2022-07-19T15:36:01;28.13;38.50
70051;SHT30;57391;51.306;22.680;2022-07-19T15:38:28;28.10;38.28
70051;SHT30;57391;51.306;22.680;2022-07-19T15:40:56;28.07;38.55
70051;SHT30;57391;51.306;22.680;2022-07-19T15:43:23;28.04;38.51
70051;SHT30;57391;51.306;22.680;2022-07-19T15:45:50;28.01;38.53
70051;SHT30;57391;51.306;22.680;2022-07-19T15:48:17;27.98;38.67
70051;SHT30;57391;51.306;22.680;2022-07-19T15:50:45;27.93;38.66
70051;SHT30;57391;51.306;22.680;2022-07-19T15:53:12;27.89;38.60